Time;durP1;ratioP1;P1;durP2;ratioP2;P2;SDS_P1;SDS_P2;PMS_P1;PMS_P2;Temp;Humidity;BMP_temperature;BMP_pressure;BME280_temperature;BME280_humidity;BME280_pressure;Samples;Min_cycle;Max_cycle;Signal;HPM_P1;HPM_P2
2022/05/01 00:01:07;;;;;;;14.00;12.87;;;;;;;12.84;77.87;95767.22;4356643;32;20193;-54
2022/05/01 00:03:40;;;;;;;14.23;13.13;;;;;;;13.02;77.16;95764.47;4394390;32;20188;-55
2022/05/01 00:06:07;;;;;;;14.07;12.87;;;;;;;13.03;76.65;95755.37;4380963;32;20196;-52
2022/05/01 00:08:33;;;;;;;14.03;12.93;;;;;;;12.79;77.93;95757.47;4378083;32;20177;-54
2022/05/01 00:11:00;;;;;;;11.67;10.47;;;;;;;13.11;77.53;95761.06;4388777;32;20192;-53
2022/05/01 00:13:26;;;;;;;13.87;12.40;;;;;;;13.20;77.31;95760.12;4389681;32;20188;-55
2022/05/01 00:15:53;;;;;;;13.17;11.83;;;;;;;13.28;77.09;95759.44;4372914;32;20197;-53
2022/05/01 00:18:20;;;;;;;14.37;13.10;;;;;;;13.17;77.99;95758.06;4385992;32;20204;-56
2022/05/01 00:20:48;;;;;;;13.20;11.83;;;;;;;13.19;77.46;95757.75;4368747;32;20203;-56
2022/05/01 00:23:14;;;;;;;15.23;13.67;;;;;;;13.26;77.85;95761.59;4369091;32;20262;-54
2022/05/01 00:25:42;;;;;;;14.23;12.97;;;;;;;13.00;77.96;95755.97;4364019;32;20208;-56
2022/05/01 00:28:09;;;;;;;15.67;14.13;;;;;;;13.13;78.12;95756.25;4368792;32;20184;-54
2022/05/01 00:30:36;;;;;;;16.10;14.47;;;;;;;13.10;78.33;95762.94;4385744;32;20228;-55
2022/05/01 00:38:57;;;;;;;19.80;12.03;;;;;;;13.06;79.05;95746.81;4368200;32;20226;-54
2022/05/01 00:41:27;;;;;;;12.03;11.00;;;;;;;13.05;78.13;95750.56;4390191;32;20262;-56
2022/05/01 00:44:11;;;;;;;13.10;11.90;;;;;;;13.21;78.64;95752.91;4381197;32;20192;-56
2022/05/01 00:46:42;;;;;;;13.40;12.03;;;;;;;13.18;78.95;95756.97;4375675;32;20229;-55
2022/05/01 00:49:20;;;;;;;13.50;12.40;;;;;;;13.21;78.65;95755.59;4351843;32;20180;-56
2022/05/01 00:52:25;;;;;;;13.00;11.80;;;;;;;13.23;78.87;95762.19;4399555;32;20185;-54
2022/05/01 00:54:53;;;;;;;15.63;14.33;;;;;;;13.17;78.85;95757.25;4388316;32;20196;-55
2022/05/01 00:57:25;;;;;;;14.70;13.50;;;;;;;12.98;79.00;95755.47;4389007;32;20189;-54
2022/05/01 00:59:52;;;;;;;13.67;12.53;;;;;;;12.91;80.30;95756.94;4381389;32;20242;-54
2022/05/01 01:02:17;;;;;;;13.07;11.87;;;;;;;12.86;80.90;95752.53;4377835;32;20189;-55
2022/05/01 01:04:45;;;;;;;14.07;12.87;;;;;;;12.86;81.23;95755.19;4378649;32;20296;-55
2022/05/01 01:07:12;;;;;;;14.67;12.77;;;;;;;12.73;81.52;95755.97;4363602;32;20267;-57
2022/05/01 01:09:38;;;;;;;15.20;13.90;;;;;;;12.56;82.04;95753.91;4377326;32;20241;-58
2022/05/01 01:15:08;;;;;;;13.97;12.77;;;;;;;12.62;81.56;95757.25;4374894;32;20219;-53
2022/05/01 01:17:41;;;;;;;13.67;12.40;;;;;;;12.58;82.35;95745.63;4385149;32;20196;-55
2022/05/01 01:20:15;;;;;;;15.47;14.10;;;;;;;12.81;81.92;95747.31;4388805;32;20211;-53
2022/05/01 01:22:43;;;;;;;14.47;13.27;;;;;;;12.67;82.27;95747.31;4373715;32;20203;-52
2022/05/01 01:25:17;;;;;;;14.03;12.83;;;;;;;12.60;82.59;95748.78;4399093;32;20196;-56
2022/05/01 01:27:44;;;;;;;14.53;13.27;;;;;;;12.60;83.48;95754.09;4375343;32;20206;-55
2022/05/01 01:32:56;;;;;;;15.47;14.20;;;;;;;12.67;83.03;95743.88;4383813;32;20327;-55
2022/05/01 01:35:27;;;;;;;14.30;12.93;;;;;;;12.74;82.12;95746.91;4376044;32;20286;-55
2022/05/01 01:37:56;;;;;;;11.93;10.83;;;;;;;12.63;83.20;95742.88;4377061;32;22960;-54
2022/05/01 01:40:49;;;;;;;15.17;13.87;;;;;;;12.54;83.63;95739.31;4366306;32;20223;-56
2022/05/01 01:43:31;;;;;;;12.00;10.97;;;;;;;12.58;83.17;95735.75;4367789;32;20201;-55
2022/05/01 01:45:58;;;;;;;13.70;12.47;;;;;;;12.60;83.80;95744.25;4369447;32;20306;-56
2022/05/01 01:48:24;;;;;;;13.90;12.80;;;;;;;12.53;83.93;95738.50;4369173;32;20228;-52
2022/05/01 01:51:06;;;;;;;14.67;13.37;;;;;;;12.54;84.31;95744.62;4386487;32;20245;-56
2022/05/01 01:53:36;;;;;;;14.23;13.13;;;;;;;12.57;84.18;95733.41;4354753;32;20207;-54
2022/05/01 01:56:07;;;;;;;12.43;11.33;;;;;;;12.52;84.07;95741.47;4373276;32;20200;-54
2022/05/01 01:58:41;;;;;;;20.43;14.20;;;;;;;12.48;84.27;95741.25;4392729;32;20226;-56
2022/05/01 02:01:09;;;;;;;13.00;11.90;;;;;;;12.50;84.06;95738.31;4414436;32;20184;-55
2022/05/01 02:03:41;;;;;;;14.37;13.13;;;;;;;12.27;85.45;95748.81;4379226;32;20203;-56
2022/05/01 02:06:09;;;;;;;13.60;12.20;;;;;;;12.14;86.23;95733.63;4349654;32;20208;-54
2022/05/01 02:08:40;;;;;;;15.03;13.73;;;;;;;12.35;85.40;95742.03;4376088;32;20195;-54
2022/05/01 02:11:07;;;;;;;15.37;14.07;;;;;;;12.35;85.97;95740.19;4383139;32;20193;-55
2022/05/01 02:13:34;;;;;;;14.70;13.40;;;;;;;12.34;85.50;95735.94;4384724;32;20229;-52
2022/05/01 02:16:01;;;;;;;14.50;13.30;;;;;;;12.32;85.93;95737.31;4374943;32;20257;-55
2022/05/01 02:18:28;;;;;;;13.03;11.90;;;;;;;12.20;85.85;95740.44;4377265;32;20203;-56
2022/05/01 02:23:40;;;;;;;12.63;11.63;;;;;;;12.39;86.09;95735.84;4371447;32;20218;-55
2022/05/01 02:26:06;;;;;;;15.63;14.27;;;;;;;12.42;85.79;95731.81;4393113;32;20192;-56
2022/05/01 02:28:31;;;;;;;13.87;12.57;;;;;;;12.43;85.02;95735.28;4380849;32;20207;-56
2022/05/01 02:30:57;;;;;;;13.77;12.67;;;;;;;12.47;84.87;95733.59;4361197;32;20260;-57
2022/05/01 02:33:25;;;;;;;13.30;12.10;;;;;;;12.42;84.88;95731.81;4366960;32;20261;-56
2022/05/01 02:35:51;;;;;;;14.43;13.00;;;;;;;12.54;85.07;95726.78;4379120;32;20196;-57
2022/05/01 02:38:17;;;;;;;14.73;13.43;;;;;;;12.66;84.87;95723.66;4383946;32;20180;-56
2022/05/01 02:40:44;;;;;;;14.43;13.23;;;;;;;12.55;84.70;95730.25;4368351;32;20200;-53
2022/05/01 02:43:12;;;;;;;14.03;12.77;;;;;;;12.60;84.97;95724.81;4398843;32;20193;-57
2022/05/01 02:45:39;;;;;;;17.97;16.40;;;;;;;12.57;84.77;95725.41;4386464;32;20237;-56
2022/05/01 02:48:05;;;;;;;17.60;16.10;;;;;;;12.65;83.82;95724.72;4385421;32;20189;-57
2022/05/01 02:50:31;;;;;;;15.83;14.53;;;;;;;12.61;84.17;95729.06;4378782;32;20298;-55
2022/05/01 02:52:59;;;;;;;15.60;14.20;;;;;;;12.64;85.03;95723.16;4373702;32;20193;-57
2022/05/01 02:55:28;;;;;;;16.60;15.20;;;;;;;12.65;84.90;95719.41;4391941;32;20277;-56
2022/05/01 02:57:55;;;;;;;14.87;13.47;;;;;;;12.69;83.83;95728.34;4405646;32;20239;-55
2022/05/01 03:00:22;;;;;;;17.30;15.73;;;;;;;12.69;84.57;95723.03;4383189;32;20180;-56
2022/05/01 03:02:48;;;;;;;15.70;14.30;;;;;;;12.67;84.93;95725.22;4373374;32;20198;-56
2022/05/01 03:05:16;;;;;;;15.80;14.20;;;;;;;12.71;85.33;95719.00;4378580;32;20228;-55
2022/05/01 03:07:42;;;;;;;18.83;17.20;;;;;;;12.79;85.04;95714.06;4389760;32;20266;-56
2022/05/01 03:10:10;;;;;;;18.70;16.87;;;;;;;12.36;85.95;95723.13;4382244;32;20192;-59
2022/05/01 03:12:37;;;;;;;16.43;14.93;;;;;;;12.41;85.89;95714.28;4384856;32;20215;-56
2022/05/01 03:15:05;;;;;;;18.00;16.37;;;;;;;12.18;87.05;95718.69;4347712;32;20196;-53
2022/05/01 03:22:10;;;;;;;17.53;16.03;;;;;;;12.27;86.65;95711.56;4385540;32;20200;-55
2022/05/01 03:23:03;;;;;;;22.17;17.87;;;;;;;12.01;88.33;95718.44;4354676;32;20249;-54
2022/05/01 03:25:29;;;;;;;21.20;19.10;;;;;;;12.05;88.39;95712.22;4375638;32;20192;-56
2022/05/01 03:27:54;;;;;;;16.93;15.23;;;;;;;12.04;87.97;95717.87;4381988;32;20283;-56
2022/05/01 03:30:21;;;;;;;19.37;17.30;;;;;;;12.08;88.71;95708.19;4387093;32;20196;-54
2022/05/01 03:32:48;;;;;;;21.07;19.07;;;;;;;12.00;88.90;95715.00;4387462;32;20216;-53
2022/05/01 03:35:16;;;;;;;19.93;17.93;;;;;;;12.14;88.00;95723.00;4357290;32;20301;-53
2022/05/01 03:37:44;;;;;;;18.70;17.00;;;;;;;12.02;88.41;95714.72;4376774;32;20204;-53
2022/05/01 03:40:15;;;;;;;18.47;16.63;;;;;;;12.07;88.59;95716.47;4373285;32;20250;-53
2022/05/01 03:42:42;;;;;;;18.40;16.27;;;;;;;12.09;87.92;95707.12;4378439;32;20251;-55
2022/05/01 03:45:09;;;;;;;18.50;16.80;;;;;;;11.99;89.01;95715.28;4373318;32;20195;-57
2022/05/01 03:47:34;;;;;;;19.87;17.97;;;;;;;12.11;88.48;95710.28;4385779;32;20292;-58
2022/05/01 03:50:02;;;;;;;22.17;19.70;;;;;;;12.12;87.56;95714.53;4383351;32;20193;-57
2022/05/01 03:52:30;;;;;;;18.87;17.13;;;;;;;12.00;87.25;95708.91;4373071;32;20287;-56
2022/05/01 03:54:56;;;;;;;18.63;16.83;;;;;;;11.99;88.67;95710.75;4361847;32;20311;-53
2022/05/01 03:57:21;;;;;;;18.87;16.87;;;;;;;12.18;88.33;95708.03;4371856;32;20193;-56
2022/05/01 03:59:48;;;;;;;20.63;17.73;;;;;;;12.12;88.39;95714.53;4388628;32;20230;-52
2022/05/01 04:02:16;;;;;;;19.87;17.77;;;;;;;12.12;87.96;95716.38;4383718;32;20196;-55
2022/05/01 04:04:46;;;;;;;20.80;18.10;;;;;;;12.15;88.37;95721.12;4382154;32;20197;-55
2022/05/01 04:07:12;;;;;;;21.23;19.13;;;;;;;12.17;86.91;95716.31;4355952;32;20215;-54
2022/05/01 04:09:38;;;;;;;18.20;16.43;;;;;;;12.26;87.29;95712.66;4379599;32;20188;-61
2022/05/01 04:12:07;;;;;;;17.57;15.87;;;;;;;12.16;86.86;95715.53;4390956;32;20211;-56
2022/05/01 04:14:34;;;;;;;17.63;15.93;;;;;;;12.03;87.05;95719.75;4384896;32;20196;-57
2022/05/01 04:17:00;;;;;;;17.37;15.67;;;;;;;11.89;88.15;95710.91;4391131;32;20180;-56
2022/05/01 04:19:28;;;;;;;16.93;15.27;;;;;;;11.97;88.25;95714.78;4374064;32;20222;-56
2022/05/01 04:21:55;;;;;;;17.60;16.00;;;;;;;12.04;87.35;95720.53;4381903;32;20246;-57
2022/05/01 04:24:23;;;;;;;17.43;15.83;;;;;;;12.03;87.63;95714.41;4368387;32;20187;-56
2022/05/01 04:26:50;;;;;;;16.10;14.47;;;;;;;12.00;87.97;95725.63;4375638;32;20185;-56
2022/05/01 04:32:23;;;;;;;18.57;16.73;;;;;;;12.35;86.51;95716.22;4374649;32;20278;-57
2022/05/01 04:34:50;;;;;;;17.23;15.77;;;;;;;12.31;86.35;95719.78;4378111;32;20187;-56
2022/05/01 04:37:16;;;;;;;17.07;15.47;;;;;;;12.28;86.79;95725.66;4378476;32;20200;-55
2022/05/01 04:39:42;;;;;;;15.43;14.03;;;;;;;12.14;86.43;95725.66;4372857;32;20263;-54
2022/05/01 04:42:08;;;;;;;18.30;16.60;;;;;;;12.21;87.62;95720.75;4381294;32;20184;-54
2022/05/01 04:44:35;;;;;;;18.73;16.83;;;;;;;11.95;87.33;95716.94;4376058;32;20233;-53
2022/05/01 04:47:01;;;;;;;18.70;16.93;;;;;;;11.94;87.02;95718.81;4378238;32;20193;-53
2022/05/01 04:49:29;;;;;;;17.93;16.13;;;;;;;11.55;87.96;95718.34;4373004;32;20207;-53
2022/05/01 04:51:56;;;;;;;18.70;16.90;;;;;;;11.61;88.90;95725.19;4353556;32;20285;-55
2022/05/01 04:54:23;;;;;;;17.87;16.10;;;;;;;11.76;89.18;95726.81;4388974;32;20187;-55
2022/05/01 04:57:08;;;;;;;20.47;18.47;;;;;;;11.73;88.98;95733.50;4388853;32;20221;-57
2022/05/01 04:59:34;;;;;;;19.50;17.60;;;;;;;11.23;89.61;95729.69;4378740;32;20271;-54
2022/05/01 05:02:00;;;;;;;17.33;15.63;;;;;;;11.46;90.99;95736.81;4365755;32;20199;-56
2022/05/01 05:04:27;;;;;;;17.97;16.20;;;;;;;11.66;90.63;95727.75;4381846;32;20186;-56
2022/05/01 05:06:54;;;;;;;18.93;16.97;;;;;;;11.86;88.53;95729.31;4389267;32;20290;-55
2022/05/01 05:12:10;;;;;;;18.10;16.40;;;;;;;11.74;88.47;95739.59;4360957;32;20324;-54
2022/05/01 05:14:36;;;;;;;16.43;14.90;;;;;;;11.66;88.35;95739.16;4376426;32;20214;-55
2022/05/01 05:17:09;;;;;;;18.93;17.10;;;;;;;11.77;89.13;95744.38;4378955;32;20286;-55
2022/05/01 05:19:37;;;;;;;20.80;18.73;;;;;;;11.64;88.73;95741.31;4380391;32;20215;-60
2022/05/01 05:22:06;;;;;;;20.13;18.13;;;;;;;11.57;88.50;95732.94;4359534;32;20203;-53
2022/05/01 05:24:32;;;;;;;20.43;18.43;;;;;;;11.57;89.16;95740.91;4372898;32;20193;-55
2022/05/01 05:26:59;;;;;;;20.17;18.23;;;;;;;11.46;90.05;95742.13;4384993;32;20279;-57
2022/05/01 05:29:26;;;;;;;17.97;16.17;;;;;;;11.63;89.42;95742.44;4374548;32;20294;-54
2022/05/01 05:31:55;;;;;;;18.27;16.43;;;;;;;11.80;89.39;95738.47;4385184;32;20212;-56
2022/05/01 05:34:21;;;;;;;20.23;18.13;;;;;;;11.89;89.17;95739.38;4347239;32;20287;-54
2022/05/01 05:36:47;;;;;;;18.20;16.40;;;;;;;11.59;88.22;95741.41;4379417;32;20201;-56
2022/05/01 05:39:14;;;;;;;17.87;16.10;;;;;;;11.86;88.96;95746.06;4391205;32;20207;-54
2022/05/01 05:41:39;;;;;;;20.43;18.37;;;;;;;11.84;88.78;95747.44;4391176;32;20231;-54
2022/05/01 05:44:07;;;;;;;19.57;17.03;;;;;;;11.66;88.44;95741.81;4377495;32;20235;-55
2022/05/01 05:46:36;;;;;;;22.10;19.80;;;;;;;11.76;88.86;95746.22;4377042;32;20192;-55
2022/05/01 05:49:01;;;;;;;19.03;17.07;;;;;;;11.75;88.01;95755.25;4389878;32;20189;-56
2022/05/01 05:51:28;;;;;;;21.50;19.20;;;;;;;11.96;88.55;95750.44;4391842;32;20207;-56
2022/05/01 05:53:56;;;;;;;20.70;18.50;;;;;;;11.84;87.47;95752.78;4384936;32;20211;-56
2022/05/01 05:56:27;;;;;;;20.73;18.60;;;;;;;11.94;87.48;95758.69;4380738;32;20268;-56
2022/05/01 05:58:52;;;;;;;21.27;19.07;;;;;;;11.82;88.49;95762.91;4389296;32;20211;-56
2022/05/01 06:01:19;;;;;;;23.07;19.33;;;;;;;11.90;88.26;95756.91;4382797;32;20218;-54
2022/05/01 06:03:44;;;;;;;21.87;19.47;;;;;;;12.07;88.05;95756.34;4391280;32;20281;-56
2022/05/01 06:06:11;;;;;;;21.97;19.73;;;;;;;11.89;86.63;95753.47;4387673;32;20263;-54
2022/05/01 06:08:41;;;;;;;21.97;19.60;;;;;;;11.87;88.25;95752.16;4388131;32;20200;-57
2022/05/01 06:11:08;;;;;;;21.67;19.47;;;;;;;11.66;88.62;95759.62;4391000;32;20193;-56
2022/05/01 06:13:34;;;;;;;21.93;19.77;;;;;;;11.64;88.08;95757.25;4391599;32;20213;-56
2022/05/01 06:16:01;;;;;;;19.87;17.73;;;;;;;11.61;88.53;95763.19;4389553;32;20185;-55
2022/05/01 06:18:29;;;;;;;23.17;20.77;;;;;;;11.58;89.31;95769.06;4383470;32;20192;-56
2022/05/01 06:20:54;;;;;;;23.73;19.47;;;;;;;11.35;89.31;95764.59;4382319;32;20227;-56
2022/05/01 06:23:21;;;;;;;27.03;19.10;;;;;;;11.64;89.89;95767.88;4345934;32;20269;-56
2022/05/01 06:25:50;;;;;;;27.50;18.70;;;;;;;11.72;88.83;95766.47;4381445;32;20203;-53
2022/05/01 06:28:17;;;;;;;22.77;20.40;;;;;;;12.03;88.50;95777.44;4391760;32;20235;-56
2022/05/01 06:30:45;;;;;;;22.33;19.40;;;;;;;11.84;87.10;95774.03;4369002;32;20189;-57
2022/05/01 06:33:15;;;;;;;21.07;18.87;;;;;;;11.63;87.62;95773.53;4375494;32;20202;-53
2022/05/01 06:35:47;;;;;;;22.60;20.23;;;;;;;11.58;88.20;95770.94;4341478;32;20193;-56
2022/05/01 06:38:13;;;;;;;24.13;18.13;;;;;;;11.78;88.57;95772.53;4353423;32;20188;-52
2022/05/01 06:40:50;;;;;;;27.10;17.93;;;;;;;11.79;89.60;95774.09;4359085;32;20193;-56
2022/05/01 06:43:19;;;;;;;25.17;19.67;;;;;;;11.60;89.30;95779.41;4368466;32;20196;-56
2022/05/01 06:45:46;;;;;;;25.37;16.97;;;;;;;11.70;87.22;95777.38;4354121;32;20220;-57
2022/05/01 06:48:15;;;;;;;25.07;20.23;;;;;;;11.85;88.74;95787.00;4349048;32;20246;-55
2022/05/01 06:50:42;;;;;;;23.43;20.93;;;;;;;11.93;87.88;95785.56;4383932;32;20238;-57
2022/05/01 06:53:09;;;;;;;22.93;20.20;;;;;;;11.69;86.15;95777.66;4387925;32;20224;-54
2022/05/01 06:55:38;;;;;;;22.40;20.00;;;;;;;11.69;88.06;95786.44;4374346;32;20222;-56
2022/05/01 06:58:05;;;;;;;22.23;18.87;;;;;;;11.69;88.10;95783.78;4353592;32;20188;-52
2022/05/01 07:00:33;;;;;;;24.00;18.90;;;;;;;11.74;88.38;95790.09;4373721;32;20233;-54
2022/05/01 07:03:02;;;;;;;26.57;19.47;;;;;;;11.79;88.78;95782.88;4372008;32;20285;-55
2022/05/01 07:05:29;;;;;;;25.97;19.40;;;;;;;11.84;89.79;95782.00;4380587;32;20258;-56
2022/05/01 07:07:54;;;;;;;25.47;21.50;;;;;;;11.85;89.01;95788.88;4369327;32;20282;-55
2022/05/01 07:10:23;;;;;;;26.20;18.70;;;;;;;11.50;89.53;95784.84;4363663;32;20189;-55
2022/05/01 07:12:51;;;;;;;24.10;21.50;;;;;;;11.69;89.37;95785.63;4361543;32;20196;-51
2022/05/01 07:15:18;;;;;;;35.17;26.50;;;;;;;11.46;88.51;95784.63;4350200;32;20214;-54
2022/05/01 07:17:44;;;;;;;30.80;25.47;;;;;;;11.46;90.03;95789.16;4366903;32;20334;-55
2022/05/01 07:20:11;;;;;;;26.43;23.60;;;;;;;11.35;90.96;95777.87;4388060;32;20265;-51
2022/05/01 07:22:39;;;;;;;24.80;22.10;;;;;;;11.24;90.73;95790.50;4392092;32;20192;-51
2022/05/01 07:25:04;;;;;;;28.20;25.17;;;;;;;11.27;90.26;95786.50;4379365;32;20203;-53
2022/05/01 07:27:30;;;;;;;23.90;21.23;;;;;;;11.35;91.09;95785.84;4387590;32;20244;-54
2022/05/01 07:29:56;;;;;;;26.20;22.03;;;;;;;11.08;90.27;95785.66;4369553;32;20204;-53
2022/05/01 07:32:24;;;;;;;27.70;24.63;;;;;;;11.11;90.41;95788.56;4384331;32;20232;-54
2022/05/01 07:34:51;;;;;;;22.80;20.40;;;;;;;11.01;93.10;95789.44;4389397;32;20189;-55
2022/05/01 07:37:20;;;;;;;24.17;21.63;;;;;;;10.57;92.22;95786.25;4390977;32;20193;-57
2022/05/01 07:39:48;;;;;;;23.43;21.03;;;;;;;10.37;93.62;95794.41;4390584;32;20189;-55
2022/05/01 07:42:15;;;;;;;23.53;21.07;;;;;;;10.47;92.84;95795.09;4383320;32;20293;-55
2022/05/01 07:44:41;;;;;;;25.70;22.90;;;;;;;10.20;93.99;95792.97;4389126;32;20189;-56
2022/05/01 07:47:07;;;;;;;25.07;21.80;;;;;;;10.35;93.18;95797.34;4389161;32;20232;-55
2022/05/01 07:49:32;;;;;;;25.17;20.90;;;;;;;10.27;94.02;95796.09;4391095;32;20218;-56
2022/05/01 07:51:59;;;;;;;23.10;20.70;;;;;;;10.24;94.05;95798.50;4389348;32;20294;-54
2022/05/01 07:54:24;;;;;;;23.83;20.83;;;;;;;10.30;93.66;95803.47;4391586;32;20185;-57
2022/05/01 07:56:51;;;;;;;23.00;20.60;;;;;;;10.17;93.51;95801.47;4372098;32;20303;-55
2022/05/01 07:59:18;;;;;;;23.33;20.80;;;;;;;10.19;93.25;95803.84;4353113;32;20250;-54
2022/05/01 08:01:44;;;;;;;23.17;20.73;;;;;;;10.04;94.11;95809.25;4378129;32;20275;-56
2022/05/01 08:07:01;;;;;;;20.80;18.70;;;;;;;9.94;94.80;95802.19;4390443;32;20214;-52
2022/05/01 08:09:27;;;;;;;21.10;18.87;;;;;;;10.14;93.78;95807.31;4391216;32;20296;-55
2022/05/01 08:11:53;;;;;;;21.30;19.10;;;;;;;10.21;93.16;95799.06;4373237;32;20291;-54
2022/05/01 08:14:21;;;;;;;19.70;17.60;;;;;;;10.05;93.58;95801.00;4387167;32;20322;-56
2022/05/01 08:16:51;;;;;;;22.20;19.90;;;;;;;10.16;93.61;95805.19;4389770;32;20192;-54
2022/05/01 08:22:06;;;;;;;20.60;18.37;;;;;;;10.16;94.04;95802.53;4381810;32;20329;-56
2022/05/01 08:24:33;;;;;;;23.53;19.97;;;;;;;10.22;93.58;95796.13;4378787;32;20295;-56
2022/05/01 08:27:07;;;;;;;20.53;18.03;;;;;;;10.22;93.43;95803.28;4371037;32;20378;-58
2022/05/01 08:29:39;;;;;;;22.53;20.23;;;;;;;10.14;93.52;95807.31;4383634;32;20279;-52
2022/05/01 08:32:08;;;;;;;21.77;19.47;;;;;;;9.91;94.70;95814.13;4387822;32;20340;-55
2022/05/01 08:34:33;;;;;;;20.57;18.33;;;;;;;10.08;94.77;95811.06;4348913;32;20226;-57
2022/05/01 08:36:59;;;;;;;21.10;18.90;;;;;;;10.07;94.67;95803.38;4362400;32;20284;-55
2022/05/01 08:39:27;;;;;;;23.25;19.85;;;;;;;10.01;95.05;95805.28;4388628;32;20274;-56
2022/05/01 08:41:52;;;;;;;20.43;18.23;;;;;;;10.04;95.09;95812.69;4388076;32;20315;-54
2022/05/01 08:44:24;;;;;;;20.67;18.50;;;;;;;9.98;95.76;95805.84;4361157;32;20298;-56
2022/05/01 08:47:07;;;;;;;21.67;19.47;;;;;;;9.95;95.70;95809.84;4389836;32;20202;-56
2022/05/01 08:49:56;;;;;;;22.23;19.90;;;;;;;9.99;95.89;95807.41;4390412;32;20344;-53
2022/05/01 08:52:23;;;;;;;21.77;19.37;;;;;;;9.90;96.59;95811.75;4389828;32;20280;-57
2022/05/01 08:54:49;;;;;;;21.43;19.23;;;;;;;9.84;96.65;95813.62;4362811;32;20301;-55
2022/05/01 08:57:20;;;;;;;20.80;18.70;;;;;;;9.84;97.11;95812.84;4394079;32;20326;-56
2022/05/01 08:59:53;;;;;;;20.93;18.73;;;;;;;9.79;97.04;95811.00;4373647;32;20294;-57
2022/05/01 09:02:19;;;;;;;22.57;19.17;;;;;;;9.72;97.91;95809.75;4380041;32;20307;-56
2022/05/01 09:04:46;;;;;;;19.83;17.47;;;;;;;9.66;98.42;95816.94;4371813;32;20315;-56
2022/05/01 09:07:15;;;;;;;21.70;19.10;;;;;;;9.84;98.38;95810.19;4363781;32;20197;-57
2022/05/01 09:09:43;;;;;;;21.87;19.57;;;;;;;9.90;97.97;95812.53;4376721;32;20283;-53
2022/05/01 09:14:57;;;;;;;22.77;18.80;;;;;;;10.03;97.09;95800.50;4367849;32;20451;-55
2022/05/01 09:17:24;;;;;;;24.60;20.00;;;;;;;10.00;96.27;95801.03;4392989;32;20296;-56
2022/05/01 09:20:09;;;;;;;21.37;18.90;;;;;;;9.98;96.26;95808.47;4389496;32;20307;-56
2022/05/01 09:22:51;;;;;;;21.77;19.47;;;;;;;9.99;96.33;95797.59;4343822;32;20322;-54
2022/05/01 09:25:19;;;;;;;21.80;19.50;;;;;;;9.90;97.20;95801.94;4357903;32;20310;-56
2022/05/01 09:27:46;;;;;;;23.93;21.10;;;;;;;10.02;97.01;95803.44;4376654;32;20294;-55
2022/05/01 09:30:16;;;;;;;23.57;19.67;;;;;;;10.10;96.71;95798.31;4381246;32;20287;-56
2022/05/01 09:32:47;;;;;;;22.70;20.03;;;;;;;10.23;96.47;95795.06;4389135;32;20325;-56
2022/05/01 09:35:37;;;;;;;21.40;19.10;;;;;;;10.18;97.51;95803.03;4389089;32;20264;-57
2022/05/01 09:38:25;;;;;;;21.40;19.20;;;;;;;10.26;96.82;95807.75;4382217;32;20272;-55
2022/05/01 09:41:01;;;;;;;21.93;18.40;;;;;;;10.44;96.41;95800.16;4405293;32;20279;-57
2022/05/01 09:43:43;;;;;;;20.77;18.60;;;;;;;10.44;96.52;95806.25;4386074;32;20295;-57
2022/05/01 09:46:23;;;;;;;20.67;18.47;;;;;;;10.60;96.30;95798.94;4385929;32;20196;-57
2022/05/01 09:49:03;;;;;;;22.73;20.33;;;;;;;10.48;95.13;95811.81;4389292;32;20280;-58
2022/05/01 09:51:33;;;;;;;23.53;20.17;;;;;;;10.48;94.88;95806.50;4380660;32;20247;-54
2022/05/01 09:54:01;;;;;;;21.27;19.07;;;;;;;10.50;94.35;95805.16;4381971;32;20314;-54
2022/05/01 09:56:26;;;;;;;22.63;19.77;;;;;;;10.47;94.48;95804.91;4367568;32;20235;-57
2022/05/01 09:59:02;;;;;;;20.23;18.17;;;;;;;10.59;94.30;95806.12;4388497;32;20280;-55
2022/05/01 10:01:29;;;;;;;21.93;19.63;;;;;;;10.59;94.85;95805.34;4390091;32;20196;-56
2022/05/01 10:03:59;;;;;;;22.97;20.30;;;;;;;10.72;94.53;95801.22;4376198;32;20875;-55
2022/05/01 10:06:29;;;;;;;22.70;20.30;;;;;;;10.71;94.23;95797.78;4377015;32;20254;-56
2022/05/01 10:08:56;;;;;;;22.27;19.03;;;;;;;10.71;94.25;95802.28;4387964;32;20192;-57
2022/05/01 10:11:23;;;;;;;22.40;20.00;;;;;;;10.82;94.79;95791.28;4370268;32;20234;-55
2022/05/01 10:13:49;;;;;;;22.50;20.13;;;;;;;10.91;94.46;95783.50;4367171;32;20299;-55
2022/05/01 10:16:16;;;;;;;24.43;20.17;;;;;;;10.89;93.65;95783.78;4392016;32;20295;-56
2022/05/01 10:18:44;;;;;;;22.00;19.57;;;;;;;11.10;93.24;95783.53;4370996;32;20200;-54
2022/05/01 10:21:11;;;;;;;21.93;19.80;;;;;;;11.14;92.75;95777.38;4391638;32;20193;-56
2022/05/01 10:23:39;;;;;;;21.53;19.17;;;;;;;11.21;92.57;95772.50;4391466;32;20192;-57
2022/05/01 10:26:17;;;;;;;23.17;19.87;;;;;;;11.15;91.54;95778.16;4386416;32;20260;-55
2022/05/01 10:29:24;;;;;;;21.33;18.80;;;;;;;11.29;90.64;95779.03;4388864;32;20212;-55
2022/05/01 10:32:27;;;;;;;21.43;19.17;;;;;;;11.31;89.82;95771.56;4389014;32;20180;-56
2022/05/01 10:35:35;;;;;;;25.53;21.40;;;;;;;11.35;89.15;95769.91;4379538;32;20219;-57
2022/05/01 10:38:30;;;;;;;22.20;19.77;;;;;;;11.31;89.23;95769.69;4308266;32;20202;-55
2022/05/01 10:41:00;;;;;;;22.27;19.97;;;;;;;11.47;89.02;95770.28;4382052;32;21331;-56
2022/05/01 10:43:30;;;;;;;23.90;21.37;;;;;;;11.45;88.91;95763.66;4373946;32;22269;-56
2022/05/01 10:45:59;;;;;;;21.23;19.10;;;;;;;11.44;89.45;95778.81;4389905;32;20263;-55
2022/05/01 10:48:41;;;;;;;21.53;19.27;;;;;;;11.54;88.47;95764.59;4382788;32;20195;-56
2022/05/01 10:51:31;;;;;;;24.13;19.20;;;;;;;11.62;88.40;95762.09;4386078;32;20244;-56
2022/05/01 10:54:22;;;;;;;24.50;21.20;;;;;;;11.52;87.67;95764.09;4360968;32;20188;-56
2022/05/01 10:57:13;;;;;;;22.63;19.80;;;;;;;11.59;87.85;95761.88;4391627;32;20241;-55
2022/05/01 10:59:43;;;;;;;21.00;18.83;;;;;;;11.78;87.51;95757.38;4373402;32;20196;-56
2022/05/01 11:02:22;;;;;;;21.17;19.07;;;;;;;11.83;86.83;95759.16;4391247;32;20230;-54
2022/05/01 11:04:49;;;;;;;20.37;18.07;;;;;;;11.84;86.61;95753.56;4389445;32;20196;-57
2022/05/01 11:07:18;;;;;;;23.00;20.20;;;;;;;11.85;86.37;95744.47;4389986;32;20187;-57
2022/05/01 11:09:46;;;;;;;22.70;20.23;;;;;;;11.90;86.99;95747.06;4383228;32;20196;-56
2022/05/01 11:12:15;;;;;;;21.87;19.27;;;;;;;11.87;86.32;95744.19;4380009;32;20219;-55
2022/05/01 11:14:55;;;;;;;20.60;18.50;;;;;;;11.99;86.03;95748.00;4387104;32;20252;-57
2022/05/01 11:17:51;;;;;;;19.47;17.47;;;;;;;12.08;84.50;95747.31;4388454;32;20190;-56
2022/05/01 11:20:24;;;;;;;20.67;18.27;;;;;;;11.96;84.66;95740.59;4391159;32;20201;-57
2022/05/01 11:22:57;;;;;;;21.23;18.93;;;;;;;11.78;84.97;95744.06;4370186;32;20228;-55
2022/05/01 11:25:38;;;;;;;19.57;17.57;;;;;;;11.75;85.57;95743.84;4375623;32;20257;-55
2022/05/01 11:28:05;;;;;;;21.40;19.20;;;;;;;11.79;84.83;95739.56;4384066;32;20188;-56
2022/05/01 11:30:36;;;;;;;20.17;18.17;;;;;;;11.92;84.88;95738.78;4389239;32;20196;-57
2022/05/01 11:33:09;;;;;;;23.17;19.50;;;;;;;11.86;85.63;95738.09;4345607;32;20199;-56
2022/05/01 11:36:00;;;;;;;20.47;18.47;;;;;;;12.12;85.40;95733.13;4382625;32;20239;-56
2022/05/01 11:38:38;;;;;;;21.57;19.37;;;;;;;12.23;82.27;95731.91;4386948;32;20279;-57
2022/05/01 11:41:10;;;;;;;19.27;17.40;;;;;;;12.28;82.18;95729.12;4360025;32;20215;-56
2022/05/01 11:43:36;;;;;;;19.27;16.47;;;;;;;12.31;80.58;95725.87;4379319;32;20266;-59
2022/05/01 11:46:17;;;;;;;18.10;16.20;;;;;;;12.52;80.94;95728.16;4396581;32;20199;-56
2022/05/01 11:48:44;;;;;;;17.40;15.80;;;;;;;12.44;79.74;95726.22;4379421;32;20226;-56
2022/05/01 11:51:12;;;;;;;19.33;16.77;;;;;;;12.45;80.52;95725.13;4382110;32;20188;-57
2022/05/01 11:53:39;;;;;;;17.93;16.03;;;;;;;12.41;80.88;95713.50;4380145;32;20237;-54
2022/05/01 12:04:38;;;;;;;18.40;16.73;;;;;;;12.59;79.82;95715.25;4390328;32;20215;-57
2022/05/01 12:07:15;;;;;;;17.53;15.80;;;;;;;12.53;79.86;95714.56;4391341;32;20212;-57
2022/05/01 12:09:44;;;;;;;18.10;16.30;;;;;;;12.63;80.00;95710.94;4389851;32;20210;-57